sensor_id;sensor_type;location;lat;lon;timestamp;pressure;altitude;pressure_sealevel;temperature;humidity
76011;BME280;64701;43.536;1.478;2023-02-15T00:01:40;100546.22;;;8.79;85.45
76011;BME280;64701;43.536;1.478;2023-02-15T00:04:06;100540.25;;;8.77;85.24
76011;BME280;64701;43.536;1.478;2023-02-15T00:06:31;100530.53;;;8.77;85.72
76011;BME280;64701;43.536;1.478;2023-02-15T00:08:57;100537.66;;;8.85;85.18
76011;BME280;64701;43.536;1.478;2023-02-15T00:11:22;100539.00;;;8.89;84.33
76011;BME280;64701;43.536;1.478;2023-02-15T00:14:19;100539.34;;;8.86;84.96
76011;BME280;64701;43.536;1.478;2023-02-15T00:16:45;100530.09;;;8.90;84.94
76011;BME280;64701;43.536;1.478;2023-02-15T00:19:11;100533.50;;;8.82;85.30
76011;BME280;64701;43.536;1.478;2023-02-15T00:21:38;100536.34;;;8.81;85.35
76011;BME280;64701;43.536;1.478;2023-02-15T00:24:04;100534.69;;;8.80;85.28
76011;BME280;64701;43.536;1.478;2023-02-15T00:26:29;100530.38;;;8.79;85.46
76011;BME280;64701;43.536;1.478;2023-02-15T00:28:55;100526.22;;;8.76;85.87
76011;BME280;64701;43.536;1.478;2023-02-15T00:31:21;100515.72;;;8.84;84.99
76011;BME280;64701;43.536;1.478;2023-02-15T00:33:46;100517.66;;;8.82;85.29
76011;BME280;64701;43.536;1.478;2023-02-15T00:36:12;100519.19;;;8.85;85.21
76011;BME280;64701;43.536;1.478;2023-02-15T00:38:37;100517.66;;;8.82;85.31
76011;BME280;64701;43.536;1.478;2023-02-15T00:41:04;100528.09;;;8.84;85.56
76011;BME280;64701;43.536;1.478;2023-02-15T00:43:30;100518.22;;;8.86;85.58
76011;BME280;64701;43.536;1.478;2023-02-15T00:45:55;100526.75;;;8.80;85.88
76011;BME280;64701;43.536;1.478;2023-02-15T00:48:21;100528.41;;;8.81;85.96
76011;BME280;64701;43.536;1.478;2023-02-15T00:50:50;100524.13;;;8.80;85.64
76011;BME280;64701;43.536;1.478;2023-02-15T00:53:16;100531.19;;;8.79;86.14
76011;BME280;64701;43.536;1.478;2023-02-15T00:55:41;100524.63;;;8.83;85.37
76011;BME280;64701;43.536;1.478;2023-02-15T00:58:07;100525.78;;;8.81;85.72
76011;BME280;64701;43.536;1.478;2023-02-15T01:00:33;100525.44;;;8.84;85.57
76011;BME280;64701;43.536;1.478;2023-02-15T01:02:58;100520.44;;;8.73;86.14
76011;BME280;64701;43.536;1.478;2023-02-15T01:05:23;100517.44;;;8.68;87.00
76011;BME280;64701;43.536;1.478;2023-02-15T01:07:49;100521.41;;;8.72;86.79
76011;BME280;64701;43.536;1.478;2023-02-15T01:10:14;100521.72;;;8.69;86.66
76011;BME280;64701;43.536;1.478;2023-02-15T01:12:39;100516.53;;;8.59;87.68
76011;BME280;64701;43.536;1.478;2023-02-15T01:15:05;100514.22;;;8.56;88.04
76011;BME280;64701;43.536;1.478;2023-02-15T01:17:31;100518.06;;;8.62;87.60
76011;BME280;64701;43.536;1.478;2023-02-15T01:19:56;100520.84;;;8.60;87.81
76011;BME280;64701;43.536;1.478;2023-02-15T01:22:21;100516.59;;;8.67;87.46
76011;BME280;64701;43.536;1.478;2023-02-15T01:24:48;100522.72;;;8.68;87.32
76011;BME280;64701;43.536;1.478;2023-02-15T01:27:13;100517.06;;;8.63;87.73
76011;BME280;64701;43.536;1.478;2023-02-15T01:29:39;100517.56;;;8.66;87.54
76011;BME280;64701;43.536;1.478;2023-02-15T01:32:04;100512.84;;;8.70;87.74
76011;BME280;64701;43.536;1.478;2023-02-15T01:34:29;100518.41;;;8.67;87.69
76011;BME280;64701;43.536;1.478;2023-02-15T01:36:55;100524.53;;;8.67;87.56
76011;BME280;64701;43.536;1.478;2023-02-15T01:39:20;100519.75;;;8.71;87.50
76011;BME280;64701;43.536;1.478;2023-02-15T01:41:45;100523.47;;;8.60;87.99
76011;BME280;64701;43.536;1.478;2023-02-15T01:46:54;100520.97;;;8.58;88.77
76011;BME280;64701;43.536;1.478;2023-02-15T01:49:20;100531.25;;;8.62;88.80
76011;BME280;64701;43.536;1.478;2023-02-15T01:51:49;100526.31;;;8.67;88.50
76011;BME280;64701;43.536;1.478;2023-02-15T01:54:20;100529.28;;;8.64;88.20
76011;BME280;64701;43.536;1.478;2023-02-15T01:56:46;100528.59;;;8.62;88.90
76011;BME280;64701;43.536;1.478;2023-02-15T01:59:14;100527.44;;;8.64;88.94
76011;BME280;64701;43.536;1.478;2023-02-15T02:01:41;100524.00;;;8.64;89.04
76011;BME280;64701;43.536;1.478;2023-02-15T02:06:32;100517.78;;;8.73;87.90
76011;BME280;64701;43.536;1.478;2023-02-15T02:08:58;100516.81;;;8.74;87.92
76011;BME280;64701;43.536;1.478;2023-02-15T02:11:23;100513.13;;;8.67;88.19
76011;BME280;64701;43.536;1.478;2023-02-15T02:13:49;100510.34;;;8.68;88.43
76011;BME280;64701;43.536;1.478;2023-02-15T02:16:19;100514.78;;;8.68;88.60
76011;BME280;64701;43.536;1.478;2023-02-15T02:24:39;100513.06;;;8.58;89.59
76011;BME280;64701;43.536;1.478;2023-02-15T02:42:14;100502.13;;;8.53;90.07
76011;BME280;64701;43.536;1.478;2023-02-15T02:47:25;100500.88;;;8.57;90.11
76011;BME280;64701;43.536;1.478;2023-02-15T02:49:52;100493.94;;;8.56;89.94
76011;BME280;64701;43.536;1.478;2023-02-15T02:55:00;100489.91;;;8.52;90.33
76011;BME280;64701;43.536;1.478;2023-02-15T02:57:26;100489.13;;;8.52;90.38
76011;BME280;64701;43.536;1.478;2023-02-15T02:59:52;100486.28;;;8.45;91.08
76011;BME280;64701;43.536;1.478;2023-02-15T03:02:20;100482.25;;;8.41;91.14
76011;BME280;64701;43.536;1.478;2023-02-15T03:04:51;100480.31;;;8.43;91.31
76011;BME280;64701;43.536;1.478;2023-02-15T03:07:23;100479.31;;;8.44;90.96
76011;BME280;64701;43.536;1.478;2023-02-15T03:09:51;100480.66;;;8.48;90.64
76011;BME280;64701;43.536;1.478;2023-02-15T03:12:18;100483.91;;;8.42;91.19
76011;BME280;64701;43.536;1.478;2023-02-15T03:14:45;100475.03;;;8.43;90.92
76011;BME280;64701;43.536;1.478;2023-02-15T03:17:12;100472.75;;;8.48;90.52
76011;BME280;64701;43.536;1.478;2023-02-15T03:19:38;100474.19;;;8.43;90.86
76011;BME280;64701;43.536;1.478;2023-02-15T03:22:05;100472.53;;;8.42;91.05
76011;BME280;64701;43.536;1.478;2023-02-15T03:27:06;100465.59;;;8.41;91.15
76011;BME280;64701;43.536;1.478;2023-02-15T03:29:32;100466.44;;;8.41;90.92
76011;BME280;64701;43.536;1.478;2023-02-15T03:31:59;100473.84;;;8.38;91.48
76011;BME280;64701;43.536;1.478;2023-02-15T03:34:25;100470.38;;;8.37;91.19
76011;BME280;64701;43.536;1.478;2023-02-15T03:36:52;100468.34;;;8.31;91.62
76011;BME280;64701;43.536;1.478;2023-02-15T03:41:56;100461.84;;;8.26;92.42
76011;BME280;64701;43.536;1.478;2023-02-15T03:44:25;100466.28;;;8.25;92.39
76011;BME280;64701;43.536;1.478;2023-02-15T03:46:59;100456.56;;;8.26;92.05
76011;BME280;64701;43.536;1.478;2023-02-15T03:50:08;100462.97;;;8.23;92.25
76011;BME280;64701;43.536;1.478;2023-02-15T03:52:14;100472.63;;;8.32;92.03
76011;BME280;64701;43.536;1.478;2023-02-15T03:54:40;100469.84;;;8.34;91.52
76011;BME280;64701;43.536;1.478;2023-02-15T04:00:03;100481.06;;;8.36;91.03
76011;BME280;64701;43.536;1.478;2023-02-15T04:05:31;100478.75;;;8.33;91.54
76011;BME280;64701;43.536;1.478;2023-02-15T04:07:57;100487.31;;;8.35;91.23
76011;BME280;64701;43.536;1.478;2023-02-15T04:10:22;100484.28;;;8.30;92.08
76011;BME280;64701;43.536;1.478;2023-02-15T04:13:06;100488.72;;;8.29;91.58
76011;BME280;64701;43.536;1.478;2023-02-15T04:15:31;100486.09;;;8.29;91.69
76011;BME280;64701;43.536;1.478;2023-02-15T04:18:15;100495.78;;;8.20;92.14
76011;BME280;64701;43.536;1.478;2023-02-15T04:20:43;100497.38;;;8.31;91.89
76011;BME280;64701;43.536;1.478;2023-02-15T04:23:27;100493.44;;;8.35;90.87
76011;BME280;64701;43.536;1.478;2023-02-15T04:26:10;100497.03;;;8.34;90.95
76011;BME280;64701;43.536;1.478;2023-02-15T04:28:36;100498.06;;;8.33;91.08
76011;BME280;64701;43.536;1.478;2023-02-15T04:31:01;100495.31;;;8.25;91.54
76011;BME280;64701;43.536;1.478;2023-02-15T04:33:26;100497.78;;;8.27;91.63
76011;BME280;64701;43.536;1.478;2023-02-15T04:35:51;100493.78;;;8.23;91.99
76011;BME280;64701;43.536;1.478;2023-02-15T04:38:17;100492.38;;;8.28;91.56
76011;BME280;64701;43.536;1.478;2023-02-15T04:40:42;100500.44;;;8.27;91.64
76011;BME280;64701;43.536;1.478;2023-02-15T04:43:07;100502.25;;;8.26;91.55
76011;BME280;64701;43.536;1.478;2023-02-15T04:45:32;100499.28;;;8.29;91.50
76011;BME280;64701;43.536;1.478;2023-02-15T04:47:58;100496.97;;;8.26;91.27
76011;BME280;64701;43.536;1.478;2023-02-15T04:50:23;100493.78;;;8.23;91.97
76011;BME280;64701;43.536;1.478;2023-02-15T04:52:48;100502.09;;;8.28;91.58
76011;BME280;64701;43.536;1.478;2023-02-15T04:55:14;100498.47;;;8.29;91.75
76011;BME280;64701;43.536;1.478;2023-02-15T04:57:39;100506.53;;;8.27;91.18
76011;BME280;64701;43.536;1.478;2023-02-15T05:00:05;100501.56;;;8.24;91.64
76011;BME280;64701;43.536;1.478;2023-02-15T05:02:30;100503.81;;;8.19;92.09
76011;BME280;64701;43.536;1.478;2023-02-15T05:04:55;100506.19;;;8.22;91.89
76011;BME280;64701;43.536;1.478;2023-02-15T05:07:21;100503.22;;;8.25;92.16
76011;BME280;64701;43.536;1.478;2023-02-15T05:09:46;100502.25;;;8.26;91.80
76011;BME280;64701;43.536;1.478;2023-02-15T05:12:11;100498.25;;;8.22;91.81
76011;BME280;64701;43.536;1.478;2023-02-15T05:14:37;100499.25;;;8.21;91.61
76011;BME280;64701;43.536;1.478;2023-02-15T05:17:02;100504.50;;;8.21;91.97
76011;BME280;64701;43.536;1.478;2023-02-15T05:19:28;100499.06;;;8.23;91.96
76011;BME280;64701;43.536;1.478;2023-02-15T05:21:53;100499.38;;;8.19;91.91
76011;BME280;64701;43.536;1.478;2023-02-15T05:24:19;100498.88;;;8.16;92.36
76011;BME280;64701;43.536;1.478;2023-02-15T05:27:03;100499.53;;;8.18;92.83
76011;BME280;64701;43.536;1.478;2023-02-15T05:29:46;100491.16;;;8.23;92.07
76011;BME280;64701;43.536;1.478;2023-02-15T05:32:12;100489.34;;;8.23;92.00
76011;BME280;64701;43.536;1.478;2023-02-15T05:34:38;100495.31;;;8.25;91.89
76011;BME280;64701;43.536;1.478;2023-02-15T05:37:03;100496.13;;;8.26;91.83
76011;BME280;64701;43.536;1.478;2023-02-15T05:39:28;100501.81;;;8.31;91.48
76011;BME280;64701;43.536;1.478;2023-02-15T05:41:53;100501.03;;;8.20;92.31
76011;BME280;64701;43.536;1.478;2023-02-15T05:44:19;100497.56;;;8.20;92.05
76011;BME280;64701;43.536;1.478;2023-02-15T05:46:44;100496.97;;;8.26;91.86
76011;BME280;64701;43.536;1.478;2023-02-15T05:49:09;100502.94;;;8.28;91.51
76011;BME280;64701;43.536;1.478;2023-02-15T05:51:34;100496.66;;;8.29;91.41
76011;BME280;64701;43.536;1.478;2023-02-15T05:54:00;100496.00;;;8.27;91.76
76011;BME280;64701;43.536;1.478;2023-02-15T05:56:25;100500.13;;;8.30;91.39
76011;BME280;64701;43.536;1.478;2023-02-15T05:58:52;100497.78;;;8.27;91.21
76011;BME280;64701;43.536;1.478;2023-02-15T06:01:18;100487.09;;;8.28;91.44
76011;BME280;64701;43.536;1.478;2023-02-15T06:03:44;100494.34;;;8.26;91.20
76011;BME280;64701;43.536;1.478;2023-02-15T06:06:09;100492.66;;;8.25;91.67
76011;BME280;64701;43.536;1.478;2023-02-15T06:08:35;100504.50;;;8.21;91.74
76011;BME280;64701;43.536;1.478;2023-02-15T06:11:00;100502.25;;;8.26;91.67
76011;BME280;64701;43.536;1.478;2023-02-15T06:13:26;100509.00;;;8.29;91.47
76011;BME280;64701;43.536;1.478;2023-02-15T06:15:51;100505.16;;;8.23;91.72
76011;BME280;64701;43.536;1.478;2023-02-15T06:18:17;100505.16;;;8.23;91.92
76011;BME280;64701;43.536;1.478;2023-02-15T06:20:42;100504.56;;;8.29;91.31
76011;BME280;64701;43.536;1.478;2023-02-15T06:23:10;100508.91;;;8.30;91.41
76011;BME280;64701;43.536;1.478;2023-02-15T06:25:35;100511.53;;;8.30;91.02
76011;BME280;64701;43.536;1.478;2023-02-15T06:28:00;100517.19;;;8.35;90.53
76011;BME280;64701;43.536;1.478;2023-02-15T06:30:25;100519.16;;;8.33;90.76
76011;BME280;64701;43.536;1.478;2023-02-15T06:32:51;100520.97;;;8.33;90.50
76011;BME280;64701;43.536;1.478;2023-02-15T06:35:16;100516.53;;;8.33;90.65
76011;BME280;64701;43.536;1.478;2023-02-15T06:37:41;100526.28;;;8.23;91.03
76011;BME280;64701;43.536;1.478;2023-02-15T06:40:07;100527.47;;;8.29;91.22
76011;BME280;64701;43.536;1.478;2023-02-15T06:42:33;100523.75;;;8.31;91.11
76011;BME280;64701;43.536;1.478;2023-02-15T06:44:58;100534.41;;;8.30;91.13
76011;BME280;64701;43.536;1.478;2023-02-15T06:47:25;100536.13;;;8.31;91.40
76011;BME280;64701;43.536;1.478;2023-02-15T06:49:50;100534.59;;;8.28;91.04
76011;BME280;64701;43.536;1.478;2023-02-15T06:52:15;100544.84;;;8.31;90.83
76011;BME280;64701;43.536;1.478;2023-02-15T06:54:40;100539.19;;;8.26;91.05
76011;BME280;64701;43.536;1.478;2023-02-15T06:57:06;100550.13;;;8.31;91.04
76011;BME280;64701;43.536;1.478;2023-02-15T06:59:31;100547.50;;;8.31;90.95
76011;BME280;64701;43.536;1.478;2023-02-15T07:01:56;100548.56;;;8.38;90.53
76011;BME280;64701;43.536;1.478;2023-02-15T07:04:22;100546.88;;;8.37;90.55
76011;BME280;64701;43.536;1.478;2023-02-15T07:06:47;100552.16;;;8.37;90.49
76011;BME280;64701;43.536;1.478;2023-02-15T07:09:12;100547.56;;;8.39;90.60
76011;BME280;64701;43.536;1.478;2023-02-15T07:11:38;100558.13;;;8.39;90.38
76011;BME280;64701;43.536;1.478;2023-02-15T07:14:22;100555.19;;;8.42;90.43
76011;BME280;64701;43.536;1.478;2023-02-15T07:16:47;100567.75;;;8.48;89.91
76011;BME280;64701;43.536;1.478;2023-02-15T07:19:12;100578.31;;;8.48;89.99
76011;BME280;64701;43.536;1.478;2023-02-15T07:21:37;100575.22;;;8.53;90.11
76011;BME280;64701;43.536;1.478;2023-02-15T07:24:03;100567.47;;;8.51;90.33
76011;BME280;64701;43.536;1.478;2023-02-15T07:26:28;100580.22;;;8.56;90.28
76011;BME280;64701;43.536;1.478;2023-02-15T07:28:55;100594.75;;;8.60;90.08
76011;BME280;64701;43.536;1.478;2023-02-15T07:31:21;100578.44;;;8.65;89.80
76011;BME280;64701;43.536;1.478;2023-02-15T07:33:46;100592.84;;;8.70;89.56
76011;BME280;64701;43.536;1.478;2023-02-15T07:36:11;100589.69;;;8.67;89.55
76011;BME280;64701;43.536;1.478;2023-02-15T07:38:38;100593.38;;;8.74;89.44
76011;BME280;64701;43.536;1.478;2023-02-15T07:41:07;100590.13;;;8.80;89.31
76011;BME280;64701;43.536;1.478;2023-02-15T07:43:35;100598.41;;;8.85;89.37
76011;BME280;64701;43.536;1.478;2023-02-15T07:46:01;100593.13;;;8.85;89.52
76011;BME280;64701;43.536;1.478;2023-02-15T07:48:26;100593.19;;;8.93;88.95
76011;BME280;64701;43.536;1.478;2023-02-15T07:50:52;100596.19;;;8.98;88.56
76011;BME280;64701;43.536;1.478;2023-02-15T07:53:17;100601.84;;;9.03;88.20
76011;BME280;64701;43.536;1.478;2023-02-15T07:55:42;100604.22;;;9.14;87.99
76011;BME280;64701;43.536;1.478;2023-02-15T07:58:07;100610.81;;;9.10;87.82
76011;BME280;64701;43.536;1.478;2023-02-15T08:00:33;100605.53;;;9.10;87.99
76011;BME280;64701;43.536;1.478;2023-02-15T08:03:18;100608.31;;;9.09;87.68
76011;BME280;64701;43.536;1.478;2023-02-15T08:05:44;100608.16;;;9.10;87.90
76011;BME280;64701;43.536;1.478;2023-02-15T08:08:10;100610.47;;;9.13;87.58
76011;BME280;64701;43.536;1.478;2023-02-15T08:11:40;100615.41;;;9.08;87.54
76011;BME280;64701;43.536;1.478;2023-02-15T08:21:42;100602.03;;;9.35;86.69
76011;BME280;64701;43.536;1.478;2023-02-15T08:24:08;100603.03;;;9.34;87.02
76011;BME280;64701;43.536;1.478;2023-02-15T08:26:34;100610.28;;;9.32;86.96
76011;BME280;64701;43.536;1.478;2023-02-15T08:29:00;100611.50;;;9.46;86.47
76011;BME280;64701;43.536;1.478;2023-02-15T08:31:25;100610.34;;;9.49;86.58
76011;BME280;64701;43.536;1.478;2023-02-15T08:33:51;100608.06;;;9.54;86.05
76011;BME280;64701;43.536;1.478;2023-02-15T08:36:18;100618.00;;;9.60;85.64
76011;BME280;64701;43.536;1.478;2023-02-15T08:38:44;100616.44;;;9.75;85.10
76011;BME280;64701;43.536;1.478;2023-02-15T08:41:14;100619.56;;;9.78;84.62
76011;BME280;64701;43.536;1.478;2023-02-15T08:43:40;100613.19;;;9.97;84.61
76011;BME280;64701;43.536;1.478;2023-02-15T08:46:06;100616.09;;;10.20;83.49
76011;BME280;64701;43.536;1.478;2023-02-15T08:48:32;100611.00;;;10.51;83.01
76011;BME280;64701;43.536;1.478;2023-02-15T08:50:57;100607.03;;;10.47;82.10
76011;BME280;64701;43.536;1.478;2023-02-15T08:53:22;100617.97;;;10.68;80.92
76011;BME280;64701;43.536;1.478;2023-02-15T08:55:57;100616.00;;;10.78;79.98
76011;BME280;64701;43.536;1.478;2023-02-15T08:58:23;100624.59;;;10.88;78.89
76011;BME280;64701;43.536;1.478;2023-02-15T09:00:49;100622.75;;;10.97;78.47
76011;BME280;64701;43.536;1.478;2023-02-15T09:03:14;100626.19;;;11.30;78.23
76011;BME280;64701;43.536;1.478;2023-02-15T09:05:39;100621.94;;;11.76;76.39
76011;BME280;64701;43.536;1.478;2023-02-15T09:08:04;100620.47;;;12.04;74.17
76011;BME280;64701;43.536;1.478;2023-02-15T09:10:30;100622.78;;;12.07;74.61
76011;BME280;64701;43.536;1.478;2023-02-15T09:12:55;100628.75;;;12.09;73.16
76011;BME280;64701;43.536;1.478;2023-02-15T09:15:20;100621.22;;;12.21;72.57
76011;BME280;64701;43.536;1.478;2023-02-15T09:17:46;100634.31;;;12.45;72.13
76011;BME280;64701;43.536;1.478;2023-02-15T09:20:11;100621.56;;;12.18;72.74
76011;BME280;64701;43.536;1.478;2023-02-15T09:22:36;100633.63;;;12.51;71.34
76011;BME280;64701;43.536;1.478;2023-02-15T09:25:02;100639.78;;;12.75;70.82
76011;BME280;64701;43.536;1.478;2023-02-15T09:27:27;100631.13;;;12.95;70.01
76011;BME280;64701;43.536;1.478;2023-02-15T09:29:53;100632.50;;;13.06;68.31
76011;BME280;64701;43.536;1.478;2023-02-15T09:32:18;100638.09;;;13.48;68.14
76011;BME280;64701;43.536;1.478;2023-02-15T09:34:43;100635.69;;;13.83;67.33
76011;BME280;64701;43.536;1.478;2023-02-15T09:37:09;100643.22;;;14.30;64.94
76011;BME280;64701;43.536;1.478;2023-02-15T09:39:34;100648.81;;;13.84;65.58
76011;BME280;64701;43.536;1.478;2023-02-15T10:02:50;100655.44;;;13.07;66.70
76011;BME280;64701;43.536;1.478;2023-02-15T10:08:04;100660.09;;;13.05;67.16
76011;BME280;64701;43.536;1.478;2023-02-15T10:26:19;100645.59;;;17.46;55.15
76011;BME280;64701;43.536;1.478;2023-02-15T10:31:24;100660.00;;;17.65;52.61
76011;BME280;64701;43.536;1.478;2023-02-15T10:34:12;100649.06;;;18.24;50.24
76011;BME280;64701;43.536;1.478;2023-02-15T10:39:15;100656.88;;;18.32;49.69
76011;BME280;64701;43.536;1.478;2023-02-15T10:41:46;100660.28;;;18.84;48.66
76011;BME280;64701;43.536;1.478;2023-02-15T11:01:41;100658.34;;;19.23;46.49
76011;BME280;64701;43.536;1.478;2023-02-15T11:06:42;100658.84;;;18.06;48.69
76011;BME280;64701;43.536;1.478;2023-02-15T11:09:09;100657.75;;;18.26;48.19
76011;BME280;64701;43.536;1.478;2023-02-15T11:11:39;100647.28;;;19.55;45.16
76011;BME280;64701;43.536;1.478;2023-02-15T11:16:57;100642.13;;;21.22;40.26
76011;BME280;64701;43.536;1.478;2023-02-15T11:19:26;100640.31;;;20.81;43.22
76011;BME280;64701;43.536;1.478;2023-02-15T11:21:55;100641.78;;;21.65;40.63
76011;BME280;64701;43.536;1.478;2023-02-15T11:24:24;100636.13;;;21.78;39.68
76011;BME280;64701;43.536;1.478;2023-02-15T11:26:54;100637.19;;;22.28;39.26
76011;BME280;64701;43.536;1.478;2023-02-15T11:31:53;100658.38;;;21.85;38.52
76011;BME280;64701;43.536;1.478;2023-02-15T11:34:25;100650.84;;;22.10;39.39
76011;BME280;64701;43.536;1.478;2023-02-15T11:36:52;100648.44;;;22.99;37.46
76011;BME280;64701;43.536;1.478;2023-02-15T11:39:19;100651.19;;;23.37;36.50
76011;BME280;64701;43.536;1.478;2023-02-15T11:41:52;100637.38;;;22.38;37.63
76011;BME280;64701;43.536;1.478;2023-02-15T11:46:44;100647.78;;;21.43;38.83
76011;BME280;64701;43.536;1.478;2023-02-15T11:49:21;100646.72;;;21.44;39.73
76011;BME280;64701;43.536;1.478;2023-02-15T11:51:48;100648.19;;;20.52;40.76
76011;BME280;64701;43.536;1.478;2023-02-15T11:54:16;100640.19;;;20.87;40.07
76011;BME280;64701;43.536;1.478;2023-02-15T11:56:42;100630.75;;;21.08;41.81
76011;BME280;64701;43.536;1.478;2023-02-15T11:59:11;100635.75;;;20.81;41.12
76011;BME280;64701;43.536;1.478;2023-02-15T12:01:39;100636.94;;;19.77;43.54
76011;BME280;64701;43.536;1.478;2023-02-15T12:04:20;100632.28;;;20.51;42.11
76011;BME280;64701;43.536;1.478;2023-02-15T12:12:21;100632.63;;;20.96;42.08
76011;BME280;64701;43.536;1.478;2023-02-15T12:14:50;100634.06;;;21.33;40.49
76011;BME280;64701;43.536;1.478;2023-02-15T12:17:15;100625.22;;;22.24;39.63
76011;BME280;64701;43.536;1.478;2023-02-15T12:19:41;100624.63;;;22.51;38.06
76011;BME280;64701;43.536;1.478;2023-02-15T12:22:45;100625.00;;;23.21;38.23
76011;BME280;64701;43.536;1.478;2023-02-15T12:25:00;100625.19;;;22.53;37.39
76011;BME280;64701;43.536;1.478;2023-02-15T12:27:33;100622.88;;;23.06;37.15
76011;BME280;64701;43.536;1.478;2023-02-15T12:30:00;100629.69;;;22.47;37.48
76011;BME280;64701;43.536;1.478;2023-02-15T12:32:31;100630.41;;;22.43;37.50
76011;BME280;64701;43.536;1.478;2023-02-15T12:35:06;100623.66;;;23.40;37.83
76011;BME280;64701;43.536;1.478;2023-02-15T12:37:32;100613.84;;;23.51;35.67
76011;BME280;64701;43.536;1.478;2023-02-15T12:40:00;100618.09;;;24.34;34.45
76011;BME280;64701;43.536;1.478;2023-02-15T12:42:26;100608.94;;;24.99;33.45
76011;BME280;64701;43.536;1.478;2023-02-15T12:47:25;100605.75;;;25.07;32.24
76011;BME280;64701;43.536;1.478;2023-02-15T12:52:41;100594.72;;;26.38;30.40
76011;BME280;64701;43.536;1.478;2023-02-15T12:55:26;100591.09;;;26.22;30.55
76011;BME280;64701;43.536;1.478;2023-02-15T13:00:33;100593.81;;;26.22;30.36
76011;BME280;64701;43.536;1.478;2023-02-15T13:02:59;100582.44;;;25.06;32.97
76011;BME280;64701;43.536;1.478;2023-02-15T13:05:32;100592.19;;;24.75;33.54
76011;BME280;64701;43.536;1.478;2023-02-15T13:10:40;100586.13;;;25.84;31.67
76011;BME280;64701;43.536;1.478;2023-02-15T13:13:50;100594.72;;;23.79;34.11
76011;BME280;64701;43.536;1.478;2023-02-15T13:15:57;100585.59;;;22.87;35.21
76011;BME280;64701;43.536;1.478;2023-02-15T13:20:51;100582.75;;;23.15;34.83
76011;BME280;64701;43.536;1.478;2023-02-15T13:23:22;100592.22;;;23.51;35.32
76011;BME280;64701;43.536;1.478;2023-02-15T13:25:49;100587.28;;;23.91;34.69
76011;BME280;64701;43.536;1.478;2023-02-15T13:28:16;100583.22;;;23.67;33.88
76011;BME280;64701;43.536;1.478;2023-02-15T13:30:43;100587.66;;;22.68;34.48
76011;BME280;64701;43.536;1.478;2023-02-15T13:33:14;100592.44;;;22.94;34.44
76011;BME280;64701;43.536;1.478;2023-02-15T13:36:27;100586.84;;;22.51;34.50
76011;BME280;64701;43.536;1.478;2023-02-15T13:38:33;100590.88;;;21.80;36.17
76011;BME280;64701;43.536;1.478;2023-02-15T13:41:03;100588.59;;;22.00;35.46
76011;BME280;64701;43.536;1.478;2023-02-15T13:43:35;100584.75;;;22.24;35.94
76011;BME280;64701;43.536;1.478;2023-02-15T13:46:23;100589.19;;;23.69;33.71
76011;BME280;64701;43.536;1.478;2023-02-15T13:51:24;100594.19;;;23.39;34.19
76011;BME280;64701;43.536;1.478;2023-02-15T13:53:58;100581.97;;;22.98;34.17
76011;BME280;64701;43.536;1.478;2023-02-15T14:01:31;100577.41;;;25.72;30.73
76011;BME280;64701;43.536;1.478;2023-02-15T14:14:01;100571.91;;;25.56;29.73
76011;BME280;64701;43.536;1.478;2023-02-15T14:24:35;100553.84;;;25.30;31.08
76011;BME280;64701;43.536;1.478;2023-02-15T14:29:56;100554.72;;;26.13;28.81
76011;BME280;64701;43.536;1.478;2023-02-15T14:34:57;100572.72;;;25.57;29.52
76011;BME280;64701;43.536;1.478;2023-02-15T14:37:29;100571.50;;;25.90;29.89
76011;BME280;64701;43.536;1.478;2023-02-15T14:39:58;100567.19;;;25.37;29.82
76011;BME280;64701;43.536;1.478;2023-02-15T14:42:47;100561.41;;;24.22;31.68
76011;BME280;64701;43.536;1.478;2023-02-15T14:50:39;100569.19;;;24.72;30.92
76011;BME280;64701;43.536;1.478;2023-02-15T14:56:04;100572.03;;;23.80;32.31
76011;BME280;64701;43.536;1.478;2023-02-15T14:58:30;100569.97;;;22.44;34.02
76011;BME280;64701;43.536;1.478;2023-02-15T15:01:02;100574.47;;;21.70;35.93
76011;BME280;64701;43.536;1.478;2023-02-15T15:03:30;100573.88;;;22.19;34.61
76011;BME280;64701;43.536;1.478;2023-02-15T15:05:55;100580.03;;;21.40;35.92
76011;BME280;64701;43.536;1.478;2023-02-15T15:08:38;100573.25;;;21.49;36.76
76011;BME280;64701;43.536;1.478;2023-02-15T15:13:55;100579.22;;;22.48;35.36
76011;BME280;64701;43.536;1.478;2023-02-15T15:18:55;100593.47;;;22.15;35.07
76011;BME280;64701;43.536;1.478;2023-02-15T15:24:05;100578.19;;;21.40;37.14
76011;BME280;64701;43.536;1.478;2023-02-15T15:26:31;100586.97;;;21.47;36.38
76011;BME280;64701;43.536;1.478;2023-02-15T15:29:05;100597.50;;;20.91;37.23
76011;BME280;64701;43.536;1.478;2023-02-15T15:39:32;100589.16;;;20.81;37.34
76011;BME280;64701;43.536;1.478;2023-02-15T15:50:11;100596.47;;;17.92;42.51
76011;BME280;64701;43.536;1.478;2023-02-15T15:52:38;100589.66;;;17.19;43.90
76011;BME280;64701;43.536;1.478;2023-02-15T15:55:05;100592.75;;;16.83;44.81
76011;BME280;64701;43.536;1.478;2023-02-15T15:57:39;100598.31;;;16.61;45.53
76011;BME280;64701;43.536;1.478;2023-02-15T16:00:22;100596.78;;;16.26;46.45
76011;BME280;64701;43.536;1.478;2023-02-15T16:02:50;100601.91;;;16.27;47.01
76011;BME280;64701;43.536;1.478;2023-02-15T16:05:16;100606.25;;;15.74;48.77
76011;BME280;64701;43.536;1.478;2023-02-15T16:07:41;100597.16;;;15.62;49.78
76011;BME280;64701;43.536;1.478;2023-02-15T16:10:07;100606.88;;;15.42;50.16
76011;BME280;64701;43.536;1.478;2023-02-15T16:12:41;100608.50;;;15.36;50.40
76011;BME280;64701;43.536;1.478;2023-02-15T16:15:17;100607.19;;;15.26;50.77
76011;BME280;64701;43.536;1.478;2023-02-15T16:17:43;100605.28;;;15.20;50.40
76011;BME280;64701;43.536;1.478;2023-02-15T16:20:17;100607.94;;;15.13;51.96
76011;BME280;64701;43.536;1.478;2023-02-15T16:22:44;100612.50;;;15.26;50.85
76011;BME280;64701;43.536;1.478;2023-02-15T16:27:42;100624.16;;;14.90;52.29